Havrenne - Hors Challenge

Le jogging de l'abbaye à Havrenne (11.00 km)

Classement complet

Le classement original se trouve sur  : http://www.nv-sports.be/
 
JOGGING DE L'ABBAYE - HAVRENNE
DISTANCE : 11.00 km
 samedi 15 avril 2017
 
Place dos NOM Catégorie Pl/cat temps temps/km Vitesse
1 452 GODEFROID EMMANUEL V1H 1 00:44:53 04:05 14.70
2 448 LAVIS THIBAUT SEH 1 00:45:55 04:10 14.37
3 469 GERARD DENIS SEH 2 00:46:37 04:14 14.16
4 512 PHILIPPOT BENOIT SEH 3 00:47:53 04:21 13.78
5 423 BOURBON JEAN-YVES V3H 1 00:49:02 04:27 13.46
6 493 GROSJEAN GASPARD SEH 4 00:50:01 04:33 13.20
7 474 POCHET BENOIT V1H 2 00:50:42 04:37 13.02
8 465 RIVEZ GUILLAUME SEH 5 00:50:55 04:38 12.96
9 504 CAVALERI ENZO SEH 6 00:52:31 04:46 12.57
10 486 MODAVE DIMITRI SEH 7 00:53:44 04:53 12.28
11 406 GERARD MAXIME SEH 8 00:53:45 04:53 12.28
12 467 FADEUX NICOLAS SEH 9 00:54:12 04:56 12.18
13 401 BOTTON ERIC V1H 3 00:54:20 04:56 12.15
14 428 LEBRUN GERALDINE SEF 1 00:54:43 04:58 12.06
15 435 DUSSART FABRICE V2H 1 00:55:27 05:02 11.90
16 446 VALANGE JEAN V2H 2 00:55:32 05:03 11.88
17 496 CAMUS STEPHANIE SEF 2 00:55:39 05:04 11.86
18 488 LERUSE ARTHUR ESH 1 00:56:00 05:05 11.79
19 422 GENART FLORIAN SEH 10 00:56:03 05:06 11.78
20 424 CRÉBEC MARGAUX SEF 3 00:56:09 05:06 11.75
21 477 FOURNY CHRISTOPHE SEH 11 00:56:23 05:08 11.71
22 456 HUET DOMINIQUE V2F 1 00:57:05 05:11 11.56
23 516 MODAVE JOEL V1H 4 00:57:15 05:12 11.53
24 517 MODAVE THIERRY V2H 3 00:57:15 05:12 11.53
25 471 HUBERT CLARA SEF 4 00:57:51 05:16 11.41
26 444 DE BRABANT MARTIN SEH 12 00:58:00 05:16 11.38
27 419 JERGEAY LAURENCE V1H 5 00:58:06 05:17 11.36
28 478 MAURIN NATHALIE V2F 2 00:58:10 05:17 11.35
29 438 GIAUX JEAN-JACQUES V2H 4 00:58:37 05:20 11.26
30 503 ANDRÉ CAROLINE V1F 1 00:58:41 05:20 11.25
31 459 JOBÉ ERIC V2H 5 00:59:21 05:24 11.12
32 437 GOURMET CARINNE V2F 3 00:59:29 05:24 11.10
33 491 MAQUET FABIENNE V2F 4 1:00:04 05:28 10.99
34 410 MAHY DIDIER V2H 6 1:00:17 05:29 10.95
35 461 NANNAN BÉNÉDICTE V2F 5 1:00:27 05:30 10.92
36 499 ARNOULD DOMINIQUE V2H 7 1:00:49 05:32 10.85
37 426 COLLÉE OLIVIER V1H 6 1:00:50 05:32 10.85
38 490 VANNIEWENHOVEN AURORE SEF 5 1:01:14 05:34 10.78
39 439 PELLEGRONS STEPHAN SEH 13 1:01:19 05:34 10.76
40 514 LISSOIR ERIC V1H 7 1:01:36 05:36 10.71
41 458 DUPONT JEAN-MARC V2H 8 1:01:50 05:37 10.67
42 511 DEBLIN CHRISTOPHE V1H 8 1:02:06 05:39 10.63
43 416 MICHEL CANDICE SEF 6 1:02:19 05:40 10.59
44 415 WITPAS ANAÏS SEF 7 1:02:19 05:40 10.59
45 462 JACQUES RAPHAEL SEH 14 1:02:37 05:42 10.54
46 502 MARCHETTO BRUNO V1H 9 1:02:43 05:42 10.52
47 509 LAFFINEUR MICHÈLE V1F 2 1:02:49 05:43 10.51
48 495 CHARLIER SANDRINE V1F 3 1:03:09 05:44 10.45
49 485 AOUST LIONEL V1H 10 1:03:35 05:47 10.38
50 480 SAEGERMAN BASTIEN SEH 15 1:03:52 05:48 10.33
51 487 CLEMENS YVES V1H 11 1:04:21 05:51 10.26
52 429 SEMAL NICOLAS V1H 12 1:04:36 05:52 10.22
53 430 DE BARQUIN MORANE SEF 8 1:05:00 05:55 10.15
54 494 GIAUX JUSTINE ESF 1 1:05:11 05:56 10.13
55 505 LAURAUT NOÉMIE -1 1 1:05:17 05:56 10.11
56 510 ROUSSEAU JEAN-MARC V2H 9 1:05:18 05:56 10.11
57 515 DEWAGNE CECILE V1F 4 1:05:26 05:57 10.09
58 451 DORMAL ATHÉNAIS ESF 2 1:05:27 05:57 10.08
59 434 MAZUIN ANNE-LAURE ESF 3 1:05:31 05:57 10.07
60 473 GOBERT MANON SEF 9 1:06:01 06:00 10.00
61 498 BALTUS JULIEN SEH 16 1:06:05 06:00 9.99
62 413 SIEGRID JANS V1F 5 1:06:30 06:03 9.92
63 404 CULOT MORGANE SEF 10 1:07:05 06:06 9.84
64 470 MARCHAL GILLES SEH 17 1:07:13 06:07 9.82
65 433 DELMAIL LÉVI SEH 18 1:07:20 06:07 9.80
66 476 BOZZI GIOVANNI V2H 10 1:07:29 06:08 9.78
67 497 BONIVER BENOIT V1H 13 1:07:53 06:10 9.72
68 518 COUBAU V3H 2 1:08:35 06:14 9.62
69 455 DEBERT STEVE SEH 19 1:08:36 06:14 9.62
70 506 LEVECQUE CEDRIC V1H 14 1:08:58 06:16 9.57
71 479 HERMAN MAUDE V1F 6 1:09:00 06:16 9.57
72 508 PROTIN LYNDA V1F 7 1:09:19 06:18 9.52
73 475 SONCK INGRID V1F 8 1:09:28 06:19 9.50
74 407 GILSON CHANTAL V2F 6 1:10:08 06:23 9.41
75 441 BOTTRIAUX BERNARD V2H 11 1:10:10 06:23 9.41
76 425 DE BARQUIN SEVERINE SEF 11 1:10:21 06:24 9.38
77 489 GALLEZ JACQUES V2H 12 1:10:21 06:24 9.38
78 453 LUPCIN FLORINE SEF 12 1:11:14 06:29 9.27
79 454 LUPCIN GERARD V2H 13 1:11:14 06:29 9.27
80 466 JAMOTTE DOMINIQUE V2F 7 1:11:38 06:31 9.21
81 440 VERMEYLEN BERNADETTE V2F 8 1:11:57 06:32 9.17
82 507 CARLY MARYLENE V1F 9 1:12:17 06:34 9.13
83 482 SOMMELETTE CATHERINE V2F 9 1:12:28 06:35 9.11
84 447 ADAM JEAN-MICHEL V3H 3 1:12:28 06:35 9.11
85 460 DUBOIS BENEDICTE V2F 10 1:12:30 06:35 9.10
86 405 FACON NATHALIE V2F 11 1:12:40 06:36 9.08
87 457 HATERT BERNADETTE V3F 1 1:12:50 06:37 9.06
88 472 MARIN BASTIEN SEH 20 1:13:29 06:41 8.98
89 513 SANTOS GUMER V1H 15 1:14:03 06:44 8.91
90 414 VALLETTE LUC V3H 4 1:14:19 06:45 8.88
91 603 LAMBERT SERGE V2H 14 1:14:27 06:46 8.87
92 464 BASTIEN PATRICIA V1F 10 1:14:47 06:48 8.83
93 417 PIRLOT CAROLINE V1F 11 1:14:49 06:48 8.82
94 418 SCHAERS GENEVIEVE V2F 12 1:15:06 06:50 8.79
95 481 JERGEAY ANNE V1F 12 1:15:07 06:50 8.79
96 445 RECHT JEAN V2H 15 1:15:21 06:51 8.76
97 500 RAMELOT AMANDINE SEF 13 1:16:04 06:55 8.68
98 501 PIRON LAURENT SEH 21 1:16:04 06:55 8.68
99 492 AERTZ LOUISE SEF 14 1:16:08 06:55 8.67
100 403 CHARLIER LÉONIE V3F 2 1:16:45 06:59 8.60
101 408 JEANJOT LIZZIE ESF 4 1:16:50 06:59 8.59
102 412 SAEGERMAN VIVIANE V2F 13 1:16:50 06:59 8.59
103 442 LAMBEAU THELMA SEF 15 1:18:12 07:07 8.44
104 436 DUMONT FRANCIS V2H 16 1:19:03 07:11 8.35